Time;durP1;ratioP1;P1;durP2;ratioP2;P2;SDS_P1;SDS_P2;PMS_P1;PMS_P2;Temp;Humidity;BMP_temperature;BMP_pressure;BME280_temperature;BME280_humidity;BME280_pressure;Samples;Min_cycle;Max_cycle;Signal;HPM_P1;HPM_P2
2023/08/27 00:02:16;;;;;;;10.73;8.40;;;;;;;;;;6262439;27;20421;-70
2023/08/27 00:05:18;;;;;;;8.43;5.55;;;;;;;;;;6283517;27;20054;-70
2023/08/27 00:08:20;;;;;;;10.07;5.63;;;;;;;;;;6231231;28;20045;-70
2023/08/27 00:11:22;;;;;;;9.13;5.78;;;;;;;;;;6229441;28;20083;-71
2023/08/27 00:14:24;;;;;;;9.55;6.60;;;;;;;;;;6244451;28;20444;-70
2023/08/27 00:17:27;;;;;;;9.50;5.88;;;;;;;;;;6235349;28;20091;-70
2023/08/27 00:20:33;;;;;;;9.80;6.18;;;;;;;;;;6239260;28;20160;-71
2023/08/27 00:23:38;;;;;;;12.68;6.65;;;;;;;;;;6240183;28;20056;-71
2023/08/27 00:26:40;;;;;;;9.23;6.00;;;;;;;;;;6238029;28;20148;-71
2023/08/27 00:29:42;;;;;;;7.78;5.32;;;;;;;;;;6231286;28;20041;-71
2023/08/27 00:32:44;;;;;;;8.00;6.05;;;;;;;;;;6226717;28;20182;-70
2023/08/27 00:35:53;;;;;;;8.35;6.00;;;;;;;;;;6240029;28;20049;-71
2023/08/27 00:38:55;;;;;;;8.40;5.93;;;;;;;;;;6230044;28;20340;-71
2023/08/27 00:41:57;;;;;;;9.48;5.95;;;;;;;;;;6267569;28;20118;-71
2023/08/27 00:45:00;;;;;;;12.13;5.85;;;;;;;;;;6255656;28;20045;-71
2023/08/27 00:48:02;;;;;;;7.95;5.53;;;;;;;;;;6245480;28;20052;-70
2023/08/27 00:51:04;;;;;;;8.30;6.35;;;;;;;;;;6253800;28;20050;-70
2023/08/27 00:54:07;;;;;;;10.10;8.52;;;;;;;;;;6215308;28;21580;-71
2023/08/27 00:57:09;;;;;;;10.18;6.03;;;;;;;;;;6259095;28;20084;-70
2023/08/27 01:00:11;;;;;;;8.63;6.22;;;;;;;;;;6268427;28;20084;-71
2023/08/27 01:03:13;;;;;;;16.60;5.68;;;;;;;;;;6268186;28;20038;-71
2023/08/27 01:06:16;;;;;;;8.82;5.78;;;;;;;;;;6256836;28;20056;-71
2023/08/27 01:09:36;;;;;;;8.45;5.65;;;;;;;;;;6261699;28;20435;-71
2023/08/27 01:12:40;;;;;;;9.35;6.38;;;;;;;;;;6255841;28;20060;-70
2023/08/27 01:15:43;;;;;;;8.07;5.35;;;;;;;;;;6226277;28;20105;-71
2023/08/27 01:18:45;;;;;;;9.45;6.40;;;;;;;;;;6232610;28;20041;-71
2023/08/27 01:21:47;;;;;;;9.35;6.78;;;;;;;;;;6193775;28;20124;-71
2023/08/27 01:24:49;;;;;;;7.47;5.78;;;;;;;;;;6218486;28;20053;-70
2023/08/27 01:27:59;;;;;;;10.02;5.88;;;;;;;;;;6267123;27;20130;-70
2023/08/27 01:31:15;;;;;;;8.60;5.85;;;;;;;;;;6278651;27;20092;-70
2023/08/27 01:34:18;;;;;;;7.68;5.65;;;;;;;;;;6229318;28;20049;-70
2023/08/27 01:37:22;;;;;;;9.13;6.72;;;;;;;;;;6222764;28;20045;-70
2023/08/27 01:40:25;;;;;;;9.23;6.93;;;;;;;;;;6344240;27;20507;-70
2023/08/27 01:43:28;;;;;;;11.75;6.82;;;;;;;;;;6289540;27;20136;-70
2023/08/27 01:46:30;;;;;;;13.02;7.65;;;;;;;;;;6286216;27;20043;-70
2023/08/27 01:49:35;;;;;;;10.70;7.00;;;;;;;;;;6250071;27;20086;-69
2023/08/27 01:52:37;;;;;;;9.23;6.40;;;;;;;;;;6266907;27;20186;-69
2023/08/27 01:55:39;;;;;;;10.90;7.35;;;;;;;;;;6316571;27;20055;-70
2023/08/27 01:58:41;;;;;;;10.52;6.82;;;;;;;;;;6234863;28;20163;-70
2023/08/27 02:01:43;;;;;;;10.25;6.43;;;;;;;;;;6239852;27;20046;-70
2023/08/27 02:04:45;;;;;;;9.85;7.30;;;;;;;;;;6274608;27;20883;-70
2023/08/27 02:07:47;;;;;;;10.77;7.28;;;;;;;;;;6330271;27;20057;-69
2023/08/27 02:10:50;;;;;;;9.48;7.43;;;;;;;;;;6280694;27;20093;-70
2023/08/27 02:13:52;;;;;;;10.43;6.63;;;;;;;;;;6289523;27;20714;-70
2023/08/27 02:16:54;;;;;;;10.98;6.93;;;;;;;;;;6286685;27;20044;-70
2023/08/27 02:19:56;;;;;;;9.25;7.05;;;;;;;;;;6232029;28;20118;-69
2023/08/27 02:22:58;;;;;;;8.13;6.10;;;;;;;;;;6273045;27;20182;-69
2023/08/27 02:26:01;;;;;;;9.10;6.43;;;;;;;;;;6231040;28;20141;-70
2023/08/27 02:29:03;;;;;;;12.55;6.57;;;;;;;;;;6264100;27;20043;-69
2023/08/27 02:32:05;;;;;;;8.45;5.72;;;;;;;;;;6259852;27;20068;-69
2023/08/27 02:35:07;;;;;;;10.88;6.68;;;;;;;;;;6277189;27;20060;-70
2023/08/27 02:38:09;;;;;;;8.68;5.75;;;;;;;;;;6271751;27;20100;-69
2023/08/27 02:41:13;;;;;;;11.55;6.55;;;;;;;;;;6279581;27;20052;-70
2023/08/27 02:44:15;;;;;;;9.55;6.63;;;;;;;;;;6247822;27;20054;-69
2023/08/27 02:47:17;;;;;;;10.68;6.20;;;;;;;;;;6299333;27;20369;-69
2023/08/27 02:50:19;;;;;;;10.65;6.20;;;;;;;;;;6234524;28;20052;-69
2023/08/27 02:53:21;;;;;;;8.90;6.32;;;;;;;;;;6317468;27;20049;-69
2023/08/27 02:56:23;;;;;;;8.57;5.38;;;;;;;;;;6264423;27;20045;-69
2023/08/27 02:59:27;;;;;;;12.60;6.03;;;;;;;;;;6269046;27;20061;-69
2023/08/27 03:02:30;;;;;;;13.43;6.63;;;;;;;;;;6232638;28;20042;-69
2023/08/27 03:05:32;;;;;;;8.57;6.00;;;;;;;;;;6248281;27;20615;-70
2023/08/27 03:08:34;;;;;;;7.68;5.63;;;;;;;;;;6281315;27;20132;-69
2023/08/27 03:11:36;;;;;;;8.57;5.32;;;;;;;;;;6239475;27;20048;-69
2023/08/27 03:14:38;;;;;;;9.07;5.78;;;;;;;;;;6263621;27;20038;-70
2023/08/27 03:17:40;;;;;;;8.38;6.03;;;;;;;;;;6281589;27;20112;-69
2023/08/27 03:20:42;;;;;;;9.60;5.78;;;;;;;;;;6249491;27;20053;-70
2023/08/27 03:23:44;;;;;;;9.10;7.85;;;;;;;;;;6277081;27;20428;-70
2023/08/27 03:26:48;;;;;;;11.52;5.93;;;;;;;;;;6239184;28;20118;-70
2023/08/27 03:29:51;;;;;;;9.02;5.80;;;;;;;;;;6241933;27;20039;-70
2023/08/27 03:32:53;;;;;;;8.70;5.82;;;;;;;;;;6208679;28;20175;-70
2023/08/27 03:35:56;;;;;;;8.90;6.55;;;;;;;;;;6228067;28;20098;-70
2023/08/27 03:38:58;;;;;;;8.02;5.60;;;;;;;;;;6268482;27;20045;-69
2023/08/27 03:42:00;;;;;;;8.70;5.60;;;;;;;;;;6233756;28;20056;-69
2023/08/27 03:45:02;;;;;;;11.25;6.38;;;;;;;;;;6234233;28;20049;-69
2023/08/27 03:48:05;;;;;;;8.02;5.82;;;;;;;;;;6232163;28;20043;-69
2023/08/27 03:51:07;;;;;;;7.55;5.63;;;;;;;;;;6229512;28;20575;-69
2023/08/27 03:54:09;;;;;;;10.02;6.63;;;;;;;;;;6229393;28;20053;-69
2023/08/27 03:57:12;;;;;;;7.97;5.57;;;;;;;;;;6261287;27;20038;-70
2023/08/27 04:00:14;;;;;;;9.10;4.80;;;;;;;;;;6226677;28;20109;-70
2023/08/27 04:03:19;;;;;;;8.68;5.18;;;;;;;;;;6250924;27;20538;-70
2023/08/27 04:06:21;;;;;;;8.55;5.50;;;;;;;;;;6232193;28;20053;-70
2023/08/27 04:09:24;;;;;;;7.70;5.55;;;;;;;;;;6232041;28;20067;-70
2023/08/27 04:12:26;;;;;;;10.68;6.50;;;;;;;;;;6249085;28;20046;-70
2023/08/27 04:15:28;;;;;;;6.57;5.40;;;;;;;;;;6257247;27;20046;-70
2023/08/27 04:18:30;;;;;;;11.25;6.20;;;;;;;;;;6287874;27;20056;-69
2023/08/27 04:21:32;;;;;;;8.65;6.82;;;;;;;;;;6298993;28;20441;-69
2023/08/27 04:24:34;;;;;;;8.27;5.78;;;;;;;;;;6228339;28;20050;-69
2023/08/27 04:27:37;;;;;;;11.30;5.43;;;;;;;;;;6228918;28;20049;-69
2023/08/27 04:30:39;;;;;;;11.57;7.97;;;;;;;;;;6220812;28;20045;-69
2023/08/27 04:33:41;;;;;;;11.95;7.68;;;;;;;;;;6214640;28;20046;-69
2023/08/27 04:36:43;;;;;;;12.23;10.52;;;;;;;;;;6247424;28;20703;-70
2023/08/27 04:39:46;;;;;;;18.17;9.57;;;;;;;;;;6219927;28;20042;-70
2023/08/27 04:42:48;;;;;;;10.07;7.43;;;;;;;;;;6253924;28;20045;-71
2023/08/27 04:45:50;;;;;;;13.52;8.68;;;;;;;;;;6248227;28;20046;-71
2023/08/27 04:48:53;;;;;;;13.30;8.20;;;;;;;;;;6247966;28;20041;-71
2023/08/27 04:51:55;;;;;;;12.50;7.60;;;;;;;;;;6229262;28;20537;-71
2023/08/27 04:54:59;;;;;;;12.90;8.70;;;;;;;;;;6277659;27;20202;-69
2023/08/27 04:58:04;;;;;;;10.93;7.63;;;;;;;;;;6234550;27;20060;-69
2023/08/27 05:01:05;;;;;;;;;;;;;;;;;;6293577;27;20039;-69
2023/08/27 05:04:08;;;;;;;9.48;6.63;;;;;;;;;;6270160;27;19936;-68
2023/08/27 05:07:10;;;;;;;11.50;7.60;;;;;;;;;;6308184;27;20473;-69
2023/08/27 05:10:13;;;;;;;13.00;8.10;;;;;;;;;;6292191;27;20060;-68
2023/08/27 05:13:15;;;;;;;10.60;7.03;;;;;;;;;;6257539;27;20046;-68
2023/08/27 05:16:17;;;;;;;11.85;6.80;;;;;;;;;;6246720;27;20042;-68
2023/08/27 05:19:19;;;;;;;8.88;6.10;;;;;;;;;;6228433;27;20046;-69
2023/08/27 05:22:21;;;;;;;8.98;5.90;;;;;;;;;;6233615;27;20133;-68
2023/08/27 05:25:24;;;;;;;10.32;6.72;;;;;;;;;;6238198;28;20160;-68
2023/08/27 05:28:27;;;;;;;9.98;8.13;;;;;;;;;;6241911;27;20587;-68
2023/08/27 05:31:29;;;;;;;10.63;6.28;;;;;;;;;;6235609;28;20045;-70
2023/08/27 05:34:31;;;;;;;9.25;5.70;;;;;;;;;;6235035;28;20059;-70
2023/08/27 05:37:33;;;;;;;10.15;6.85;;;;;;;;;;6214940;27;20061;-69
2023/08/27 05:40:35;;;;;;;11.27;6.68;;;;;;;;;;6226464;27;20136;-71
2023/08/27 05:43:38;;;;;;;9.60;6.90;;;;;;;;;;6265173;27;20060;-71
2023/08/27 05:46:40;;;;;;;10.35;8.48;;;;;;;;;;6240382;27;20437;-70
2023/08/27 05:49:43;;;;;;;9.70;8.70;;;;;;;;;;6228387;28;20600;-69
2023/08/27 05:52:45;;;;;;;9.57;5.90;;;;;;;;;;6240002;27;20136;-70
2023/08/27 05:55:47;;;;;;;10.18;7.38;;;;;;;;;;6233798;28;20149;-70
2023/08/27 05:58:49;;;;;;;9.20;6.80;;;;;;;;;;6244553;27;20056;-70
2023/08/27 06:01:51;;;;;;;15.23;6.90;;;;;;;;;;6229082;28;20045;-70
2023/08/27 06:04:54;;;;;;;9.65;6.68;;;;;;;;;;6242602;27;20140;-69
2023/08/27 06:07:58;;;;;;;8.38;5.93;;;;;;;;;;6257556;27;20056;-70
2023/08/27 06:11:04;;;;;;;8.30;5.32;;;;;;;;;;6236665;28;20041;-70
2023/08/27 06:14:06;;;;;;;9.35;8.45;;;;;;;;;;6253985;27;21159;-70
2023/08/27 06:17:08;;;;;;;9.88;5.57;;;;;;;;;;6234468;28;20050;-70
2023/08/27 06:20:10;;;;;;;10.05;4.97;;;;;;;;;;6252700;27;20066;-71
2023/08/27 06:23:13;;;;;;;8.25;5.13;;;;;;;;;;6245641;27;20134;-70
2023/08/27 06:26:15;;;;;;;8.40;5.55;;;;;;;;;;6265948;27;20088;-70
2023/08/27 06:29:18;;;;;;;9.57;4.82;;;;;;;;;;6293437;27;20039;-69
2023/08/27 06:32:20;;;;;;;11.02;5.30;;;;;;;;;;6238729;27;20555;-71
2023/08/27 06:35:23;;;;;;;9.30;4.80;;;;;;;;;;6230255;28;20045;-70
2023/08/27 06:38:25;;;;;;;8.45;5.68;;;;;;;;;;6242080;27;20043;-70
2023/08/27 06:41:27;;;;;;;7.72;5.57;;;;;;;;;;6245280;27;20041;-71
2023/08/27 06:44:31;;;;;;;7.95;4.95;;;;;;;;;;6255297;27;20084;-69
2023/08/27 06:47:35;;;;;;;6.53;4.85;;;;;;;;;;6239526;27;20053;-69
2023/08/27 06:50:37;;;;;;;8.88;5.07;;;;;;;;;;6263620;27;20037;-69
2023/08/27 06:53:39;;;;;;;7.40;4.55;;;;;;;;;;6247596;27;20084;-70
2023/08/27 06:56:41;;;;;;;10.02;5.03;;;;;;;;;;6250055;27;20950;-70
2023/08/27 06:59:43;;;;;;;7.45;5.50;;;;;;;;;;6249661;27;20053;-70
2023/08/27 07:02:46;;;;;;;7.95;4.72;;;;;;;;;;6250426;27;20078;-71
2023/08/27 07:05:48;;;;;;;6.93;5.05;;;;;;;;;;6222213;28;20050;-71
2023/08/27 07:08:52;;;;;;;8.77;5.15;;;;;;;;;;6239200;28;20345;-71
2023/08/27 07:11:54;;;;;;;8.52;5.25;;;;;;;;;;6238284;27;20045;-70
2023/08/27 07:14:56;;;;;;;9.25;4.80;;;;;;;;;;6250082;27;20049;-71
2023/08/27 07:17:59;;;;;;;8.80;5.68;;;;;;;;;;6226803;28;20034;-71
2023/08/27 07:21:02;;;;;;;6.97;5.07;;;;;;;;;;6245224;27;20059;-70
2023/08/27 07:24:05;;;;;;;7.65;4.90;;;;;;;;;;6236713;27;20059;-71
2023/08/27 07:27:08;;;;;;;12.43;5.88;;;;;;;;;;6240775;27;20052;-70
2023/08/27 07:30:10;;;;;;;8.82;4.93;;;;;;;;;;6252971;27;20037;-71
2023/08/27 07:33:13;;;;;;;7.97;4.95;;;;;;;;;;6236543;27;20140;-70
2023/08/27 07:36:15;;;;;;;10.68;5.05;;;;;;;;;;6219871;28;20084;-70
2023/08/27 07:39:18;;;;;;;10.95;4.40;;;;;;;;;;6227401;28;20057;-70
2023/08/27 07:42:21;;;;;;;9.13;4.75;;;;;;;;;;6244228;27;20033;-70
2023/08/27 07:45:24;;;;;;;7.63;4.75;;;;;;;;;;6308108;27;20049;-70
2023/08/27 07:48:27;;;;;;;7.72;4.40;;;;;;;;;;6230423;28;20053;-70
2023/08/27 07:51:31;;;;;;;6.95;4.90;;;;;;;;;;6251876;27;20049;-71
2023/08/27 07:54:33;;;;;;;7.55;3.95;;;;;;;;;;6245636;28;20047;-71
2023/08/27 07:57:35;;;;;;;7.07;4.43;;;;;;;;;;6212569;28;20071;-70
2023/08/27 08:00:38;;;;;;;6.60;4.13;;;;;;;;;;6269570;27;20041;-70
2023/08/27 08:03:41;;;;;;;7.80;3.90;;;;;;;;;;6231553;28;20472;-70
2023/08/27 08:06:43;;;;;;;8.93;4.50;;;;;;;;;;6243386;28;20655;-70
2023/08/27 08:09:45;;;;;;;8.50;4.35;;;;;;;;;;6233180;28;20049;-70
2023/08/27 08:12:49;;;;;;;7.38;4.53;;;;;;;;;;6243989;28;20045;-71
2023/08/27 08:15:51;;;;;;;6.72;3.78;;;;;;;;;;6285052;28;20047;-71
2023/08/27 08:18:53;;;;;;;7.72;4.53;;;;;;;;;;6234951;27;20065;-70
2023/08/27 08:21:56;;;;;;;10.10;4.05;;;;;;;;;;6236941;28;20071;-70
2023/08/27 08:24:59;;;;;;;9.75;5.57;;;;;;;;;;6276751;28;20053;-69
2023/08/27 08:28:01;;;;;;;9.50;4.35;;;;;;;;;;6238902;28;20051;-71
2023/08/27 08:31:04;;;;;;;7.45;6.30;;;;;;;;;;6270289;27;20168;-70
2023/08/27 08:34:06;;;;;;;6.38;3.58;;;;;;;;;;6286399;27;20049;-69
2023/08/27 08:37:08;;;;;;;7.72;4.55;;;;;;;;;;6238189;27;20049;-71
2023/08/27 08:40:11;;;;;;;7.50;4.63;;;;;;;;;;6264605;27;20048;-70
2023/08/27 08:43:40;;;;;;;8.18;4.55;;;;;;;;;;6235294;27;20046;-70
2023/08/27 08:46:43;;;;;;;8.90;4.18;;;;;;;;;;6269351;27;20045;-71
2023/08/27 08:49:49;;;;;;;7.43;4.15;;;;;;;;;;6235524;27;20069;-70
2023/08/27 08:52:53;;;;;;;7.97;4.13;;;;;;;;;;6232769;27;20049;-70
2023/08/27 08:55:58;;;;;;;7.07;4.70;;;;;;;;;;6284278;27;20107;-71
2023/08/27 08:59:00;;;;;;;;;;;;;;;;;;6243148;27;20887;-71
2023/08/27 09:02:02;;;;;;;7.80;3.72;;;;;;;;;;6262282;27;19964;-71
2023/08/27 09:05:06;;;;;;;7.70;3.88;;;;;;;;;;6232114;28;20042;-70
2023/08/27 09:08:10;;;;;;;8.50;3.90;;;;;;;;;;6229140;28;20042;-71
2023/08/27 09:11:13;;;;;;;5.88;3.53;;;;;;;;;;6268997;27;20045;-71
2023/08/27 09:14:15;;;;;;;6.35;3.60;;;;;;;;;;6224720;28;20183;-71
2023/08/27 09:17:19;;;;;;;7.97;4.00;;;;;;;;;;6230396;28;20035;-71
2023/08/27 09:20:22;;;;;;;8.65;4.50;;;;;;;;;;6291778;27;20046;-71
2023/08/27 09:23:24;;;;;;;6.22;3.80;;;;;;;;;;6244638;27;20044;-71
2023/08/27 09:26:27;;;;;;;8.93;5.03;;;;;;;;;;6301228;27;20152;-71
2023/08/27 09:29:30;;;;;;;8.05;4.32;;;;;;;;;;6280610;27;20136;-71
2023/08/27 09:32:32;;;;;;;5.57;3.50;;;;;;;;;;6235404;28;20049;-71
2023/08/27 09:35:41;;;;;;;6.20;3.90;;;;;;;;;;6247992;27;20046;-71
2023/08/27 09:38:43;;;;;;;6.18;4.18;;;;;;;;;;6335315;27;20049;-71
2023/08/27 09:41:49;;;;;;;8.60;4.50;;;;;;;;;;6275518;27;20046;-71
2023/08/27 09:44:52;;;;;;;7.80;4.28;;;;;;;;;;6235193;27;20098;-71
2023/08/27 09:47:56;;;;;;;7.05;4.60;;;;;;;;;;6235308;28;20610;-71
2023/08/27 09:51:05;;;;;;;6.10;4.20;;;;;;;;;;6245634;27;20471;-71
2023/08/27 09:54:15;;;;;;;6.93;4.13;;;;;;;;;;6279894;27;20067;-72
2023/08/27 09:57:19;;;;;;;7.80;4.05;;;;;;;;;;6267790;27;20045;-71
2023/08/27 10:00:22;;;;;;;8.02;3.83;;;;;;;;;;6275221;27;20057;-71
2023/08/27 10:03:24;;;;;;;6.25;3.80;;;;;;;;;;6258160;27;20059;-71
2023/08/27 10:06:34;;;;;;;7.57;5.45;;;;;;;;;;6285016;27;20880;-72
2023/08/27 10:09:36;;;;;;;6.47;3.70;;;;;;;;;;6267695;27;20050;-72
2023/08/27 10:12:38;;;;;;;9.30;4.72;;;;;;;;;;6258076;27;20038;-72
2023/08/27 10:15:40;;;;;;;8.15;3.95;;;;;;;;;;6191994;28;20053;-72
2023/08/27 10:18:43;;;;;;;6.65;3.95;;;;;;;;;;6286454;27;20166;-72
2023/08/27 10:21:47;;;;;;;9.23;4.25;;;;;;;;;;6232952;27;20049;-72
2023/08/27 10:24:50;;;;;;;7.55;3.75;;;;;;;;;;6247292;27;20047;-71
2023/08/27 10:27:53;;;;;;;6.22;4.20;;;;;;;;;;6259030;27;20041;-71
2023/08/27 10:30:56;;;;;;;7.30;3.65;;;;;;;;;;6233798;27;20124;-71
2023/08/27 10:33:58;;;;;;;12.48;3.65;;;;;;;;;;6239163;27;20124;-71
2023/08/27 10:37:06;;;;;;;6.82;3.92;;;;;;;;;;6281181;27;20137;-71
2023/08/27 10:40:10;;;;;;;8.57;3.58;;;;;;;;;;6246939;27;20041;-71
2023/08/27 10:43:20;;;;;;;6.25;3.55;;;;;;;;;;6235772;27;20037;-71
2023/08/27 10:46:24;;;;;;;5.70;3.50;;;;;;;;;;6234335;27;20053;-71
2023/08/27 10:49:35;;;;;;;7.28;3.83;;;;;;;;;;6228009;27;20038;-71
2023/08/27 10:52:50;;;;;;;8.38;3.55;;;;;;;;;;6249423;27;20103;-72
2023/08/27 10:55:52;;;;;;;7.65;3.63;;;;;;;;;;6232640;27;20045;-71
2023/08/27 10:59:10;;;;;;;6.63;3.65;;;;;;;;;;6236788;27;20067;-71
2023/08/27 11:02:14;;;;;;;6.22;3.50;;;;;;;;;;6257807;27;20440;-71
2023/08/27 11:05:25;;;;;;;6.82;3.47;;;;;;;;;;6281377;27;20043;-71
2023/08/27 11:08:45;;;;;;;8.48;3.15;;;;;;;;;;6271475;27;20087;-72
2023/08/27 11:16:24;;;;;;;8.48;3.42;;;;;;;;;;6252088;27;20137;-71
2023/08/27 11:20:40;;;;;;;7.07;2.40;;;;;;;;;;6238824;28;20543;-70
2023/08/27 11:24:56;;;;;;;5.88;3.03;;;;;;;;;;6173736;28;20155;-70
2023/08/27 11:29:14;;;;;;;4.78;2.45;;;;;;;;;;6201609;28;20717;-72
2023/08/27 11:33:09;;;;;;;5.10;2.75;;;;;;;;;;6145697;28;20083;-73
2023/08/27 11:36:19;;;;;;;6.20;3.10;;;;;;;;;;6134571;28;20055;-72
2023/08/27 11:39:44;;;;;;;5.95;2.88;;;;;;;;;;6183157;28;20131;-71
2023/08/27 11:42:53;;;;;;;8.60;2.88;;;;;;;;;;6168806;28;20545;-70
2023/08/27 11:45:56;;;;;;;9.38;2.70;;;;;;;;;;6158741;28;20051;-70
2023/08/27 11:48:58;;;;;;;7.60;2.75;;;;;;;;;;6152321;28;20072;-70
2023/08/27 11:52:00;;;;;;;4.55;2.15;;;;;;;;;;6151746;28;20035;-70
2023/08/27 11:55:03;;;;;;;5.22;2.22;;;;;;;;;;6201650;28;20136;-70
2023/08/27 11:58:06;;;;;;;6.90;2.60;;;;;;;;;;6167095;28;20051;-70
2023/08/27 12:01:11;;;;;;;5.65;2.17;;;;;;;;;;6184389;28;20053;-70
2023/08/27 12:04:14;;;;;;;6.10;2.50;;;;;;;;;;6234482;28;20062;-71
2023/08/27 12:07:27;;;;;;;10.75;2.65;;;;;;;;;;6240288;28;20041;-70
2023/08/27 12:10:32;;;;;;;8.23;2.72;;;;;;;;;;6264852;27;20178;-69
2023/08/27 12:13:34;;;;;;;5.25;2.75;;;;;;;;;;6231790;28;20049;-70
2023/08/27 12:16:38;;;;;;;6.80;2.40;;;;;;;;;;6235575;28;20050;-70
2023/08/27 12:19:42;;;;;;;7.28;2.38;;;;;;;;;;6233478;28;20049;-69
2023/08/27 12:22:44;;;;;;;;;;;;;;;;;;6215789;28;20117;-70
2023/08/27 12:25:48;;;;;;;6.57;1.88;;;;;;;;;;6237234;28;19929;-70
2023/08/27 12:28:55;;;;;;;5.57;2.40;;;;;;;;;;6253441;28;20748;-71
2023/08/27 12:31:58;;;;;;;5.75;2.28;;;;;;;;;;6234329;28;20073;-71
2023/08/27 12:35:01;;;;;;;6.75;2.42;;;;;;;;;;6229969;28;20042;-71
2023/08/27 12:38:04;;;;;;;5.15;2.08;;;;;;;;;;6234220;28;20050;-71
2023/08/27 12:41:06;;;;;;;6.40;1.85;;;;;;;;;;6257114;28;20082;-71
2023/08/27 12:44:08;;;;;;;6.03;1.77;;;;;;;;;;6239948;28;20118;-70
2023/08/27 12:47:13;;;;;;;4.88;1.70;;;;;;;;;;6235851;28;20046;-70
2023/08/27 12:50:15;;;;;;;7.45;1.90;;;;;;;;;;6257926;28;20050;-70
2023/08/27 12:53:17;;;;;;;4.28;1.40;;;;;;;;;;6254234;28;20084;-70
2023/08/27 12:56:19;;;;;;;4.97;1.75;;;;;;;;;;6227807;27;20061;-70
2023/08/27 12:59:22;;;;;;;7.25;1.70;;;;;;;;;;6251399;28;20613;-71
2023/08/27 13:02:24;;;;;;;5.53;1.90;;;;;;;;;;6233239;28;20049;-70
2023/08/27 13:05:26;;;;;;;8.55;1.92;;;;;;;;;;6295005;28;20057;-70
2023/08/27 13:08:28;;;;;;;6.53;1.95;;;;;;;;;;6224167;28;20041;-70
2023/08/27 13:11:30;;;;;;;5.97;2.17;;;;;;;;;;6235667;28;20053;-70
2023/08/27 13:14:32;;;;;;;5.53;1.80;;;;;;;;;;6247666;28;20065;-70
2023/08/27 13:17:34;;;;;;;6.88;1.88;;;;;;;;;;6237625;27;20081;-70
2023/08/27 13:20:36;;;;;;;5.63;1.80;;;;;;;;;;6297394;27;20145;-70
2023/08/27 13:23:38;;;;;;;5.68;1.85;;;;;;;;;;6283099;27;20154;-70
2023/08/27 13:26:40;;;;;;;7.20;2.10;;;;;;;;;;6240259;27;20065;-71
2023/08/27 13:29:42;;;;;;;7.47;1.70;;;;;;;;;;6232357;27;20820;-70
2023/08/27 13:32:45;;;;;;;5.30;2.22;;;;;;;;;;6232576;28;20050;-71
2023/08/27 13:35:47;;;;;;;6.50;1.73;;;;;;;;;;6230477;28;20049;-70
2023/08/27 13:38:49;;;;;;;4.70;1.90;;;;;;;;;;6268608;27;20054;-70
2023/08/27 13:41:51;;;;;;;4.55;2.10;;;;;;;;;;6275393;27;20528;-71
2023/08/27 13:44:54;;;;;;;7.28;1.95;;;;;;;;;;6298262;27;20049;-70
2023/08/27 13:47:56;;;;;;;7.53;3.30;;;;;;;;;;6249327;28;20041;-70
2023/08/27 13:50:58;;;;;;;4.75;2.00;;;;;;;;;;6234328;28;20045;-70
2023/08/27 13:54:00;;;;;;;4.90;2.13;;;;;;;;;;6278019;27;20045;-70
2023/08/27 13:57:02;;;;;;;5.78;2.50;;;;;;;;;;6282169;27;20180;-70
2023/08/27 14:00:05;;;;;;;5.95;2.17;;;;;;;;;;6251617;27;20053;-70
2023/08/27 14:03:07;;;;;;;7.90;2.58;;;;;;;;;;6272761;27;20037;-70
2023/08/27 14:06:09;;;;;;;9.05;2.50;;;;;;;;;;6237005;27;20041;-70
2023/08/27 14:09:13;;;;;;;6.07;2.90;;;;;;;;;;6235539;27;20099;-70
2023/08/27 14:12:15;;;;;;;8.05;2.40;;;;;;;;;;6226501;28;20048;-71
2023/08/27 14:15:17;;;;;;;5.35;1.98;;;;;;;;;;6232531;28;20120;-70
2023/08/27 14:18:20;;;;;;;4.18;1.90;;;;;;;;;;6235998;27;20042;-70
2023/08/27 14:21:22;;;;;;;7.43;3.05;;;;;;;;;;6222513;28;20038;-70
2023/08/27 14:24:24;;;;;;;4.95;1.67;;;;;;;;;;6252919;27;20050;-71
2023/08/27 14:27:27;;;;;;;6.10;2.88;;;;;;;;;;6222180;28;20061;-70
2023/08/27 14:30:29;;;;;;;7.88;2.28;;;;;;;;;;6229391;27;20144;-70
2023/08/27 14:33:32;;;;;;;3.92;1.88;;;;;;;;;;6230366;27;20166;-71
2023/08/27 14:36:35;;;;;;;7.75;2.25;;;;;;;;;;6279002;27;20060;-70
2023/08/27 14:39:37;;;;;;;5.18;1.67;;;;;;;;;;6273954;27;20503;-70
2023/08/27 14:42:41;;;;;;;5.45;2.10;;;;;;;;;;6239732;27;20033;-71
2023/08/27 14:45:43;;;;;;;5.10;2.05;;;;;;;;;;6228983;27;20515;-70
2023/08/27 14:48:45;;;;;;;4.40;1.90;;;;;;;;;;6273560;27;20049;-70
2023/08/27 14:51:47;;;;;;;4.15;1.67;;;;;;;;;;6257402;27;20057;-71
2023/08/27 14:54:50;;;;;;;5.97;1.65;;;;;;;;;;6252161;27;20094;-70
2023/08/27 14:57:52;;;;;;;5.47;2.05;;;;;;;;;;6255551;27;20033;-69
2023/08/27 15:00:54;;;;;;;4.50;2.05;;;;;;;;;;6241860;27;20623;-70
2023/08/27 15:03:56;;;;;;;3.83;2.30;;;;;;;;;;6245013;27;20389;-70
2023/08/27 15:06:59;;;;;;;5.72;2.03;;;;;;;;;;6238013;27;20045;-70
2023/08/27 15:10:01;;;;;;;5.78;2.03;;;;;;;;;;6252027;27;20049;-69
2023/08/27 15:13:03;;;;;;;6.65;2.20;;;;;;;;;;6231040;27;20045;-71
2023/08/27 15:16:05;;;;;;;4.47;1.98;;;;;;;;;;6250611;27;20056;-70
2023/08/27 15:19:08;;;;;;;6.82;1.95;;;;;;;;;;6260580;27;20545;-70
2023/08/27 15:22:10;;;;;;;3.72;1.55;;;;;;;;;;6245807;27;20517;-70
2023/08/27 15:25:12;;;;;;;6.38;2.20;;;;;;;;;;6280446;27;20520;-70
2023/08/27 15:28:15;;;;;;;5.43;1.70;;;;;;;;;;6231616;27;20046;-71
2023/08/27 15:31:17;;;;;;;8.13;3.03;;;;;;;;;;6234771;27;20464;-70
2023/08/27 15:34:19;;;;;;;4.68;1.98;;;;;;;;;;6231328;27;20042;-70
2023/08/27 15:37:21;;;;;;;4.38;1.75;;;;;;;;;;6253705;27;20684;-71
2023/08/27 15:40:23;;;;;;;5.70;1.85;;;;;;;;;;6237052;27;20140;-70
2023/08/27 15:43:32;;;;;;;7.88;2.15;;;;;;;;;;6232189;27;20091;-70
2023/08/27 15:46:34;;;;;;;6.75;2.05;;;;;;;;;;6238819;27;20084;-70
2023/08/27 15:49:36;;;;;;;4.63;1.58;;;;;;;;;;6254878;27;20042;-70
2023/08/27 15:52:39;;;;;;;6.28;2.58;;;;;;;;;;6255715;27;20094;-70
2023/08/27 15:55:41;;;;;;;6.22;2.80;;;;;;;;;;6254159;27;20749;-70
2023/08/27 15:58:44;;;;;;;11.65;3.13;;;;;;;;;;6311199;27;20234;-70
2023/08/27 16:01:48;;;;;;;5.03;2.70;;;;;;;;;;6233483;27;20580;-70
2023/08/27 16:04:50;;;;;;;5.75;2.15;;;;;;;;;;6242065;27;20037;-70
2023/08/27 16:07:55;;;;;;;7.13;2.53;;;;;;;;;;6250354;27;20045;-70
2023/08/27 16:10:57;;;;;;;4.18;1.70;;;;;;;;;;6268390;27;20053;-70
2023/08/27 16:14:00;;;;;;;4.07;1.48;;;;;;;;;;6255609;27;20049;-70
2023/08/27 16:17:04;;;;;;;4.60;2.42;;;;;;;;;;6235069;27;20147;-70
2023/08/27 16:20:08;;;;;;;9.35;5.18;;;;;;;;;;6254662;28;20068;-70
2023/08/27 16:23:10;;;;;;;6.80;2.53;;;;;;;;;;6295304;28;20037;-70
2023/08/27 16:26:12;;;;;;;7.65;4.30;;;;;;;;;;6228005;28;20711;-71
2023/08/27 16:29:15;;;;;;;11.68;6.07;;;;;;;;;;6269535;28;20046;-70
2023/08/27 16:32:17;;;;;;;9.23;3.50;;;;;;;;;;6258702;28;20579;-70
2023/08/27 16:35:21;;;;;;;12.52;7.65;;;;;;;;;;6247304;28;20564;-70
2023/08/27 16:38:23;;;;;;;8.88;4.25;;;;;;;;;;6258073;28;20049;-70
2023/08/27 16:41:25;;;;;;;6.10;3.13;;;;;;;;;;6232026;28;20136;-70
2023/08/27 16:44:28;;;;;;;5.60;3.03;;;;;;;;;;6253447;28;20163;-71
2023/08/27 16:47:31;;;;;;;10.30;6.75;;;;;;;;;;6269801;28;20039;-71
2023/08/27 16:50:39;;;;;;;12.95;8.60;;;;;;;;;;6257286;28;20083;-70
2023/08/27 16:53:41;;;;;;;11.60;7.38;;;;;;;;;;6257647;27;20043;-71
2023/08/27 16:56:43;;;;;;;13.40;8.45;;;;;;;;;;6219677;27;20049;-70
2023/08/27 16:59:45;;;;;;;5.22;2.13;;;;;;;;;;6233470;27;20041;-71
2023/08/27 17:02:52;;;;;;;4.90;1.92;;;;;;;;;;6260323;27;20057;-70
2023/08/27 17:05:57;;;;;;;7.57;2.08;;;;;;;;;;6267079;27;20054;-71
2023/08/27 17:08:59;;;;;;;;;;;;;;;;;;6241798;27;20041;-71
2023/08/27 17:12:01;;;;;;;7.22;2.30;;;;;;;;;;6261196;27;19929;-70
2023/08/27 17:15:03;;;;;;;7.13;1.65;;;;;;;;;;6238276;27;20349;-71
2023/08/27 17:18:06;;;;;;;7.50;2.13;;;;;;;;;;6226546;27;20045;-71
2023/08/27 17:21:08;;;;;;;5.20;1.98;;;;;;;;;;6223112;28;20100;-70
2023/08/27 17:24:11;;;;;;;4.50;1.55;;;;;;;;;;6263063;27;20103;-71
2023/08/27 17:27:13;;;;;;;6.43;2.58;;;;;;;;;;6237208;27;20037;-71
2023/08/27 17:30:15;;;;;;;5.65;2.17;;;;;;;;;;6270256;27;20060;-71
2023/08/27 17:33:17;;;;;;;6.50;2.80;;;;;;;;;;6248117;27;20037;-71
2023/08/27 17:36:20;;;;;;;8.27;1.70;;;;;;;;;;6302650;27;20202;-71
2023/08/27 17:39:22;;;;;;;6.53;3.35;;;;;;;;;;6282146;27;20966;-71
2023/08/27 17:42:24;;;;;;;4.85;1.70;;;;;;;;;;6254916;28;20042;-71
2023/08/27 17:45:26;;;;;;;5.25;2.35;;;;;;;;;;6236322;27;20041;-70
2023/08/27 17:48:29;;;;;;;7.65;2.33;;;;;;;;;;6245504;27;20042;-71
2023/08/27 17:51:31;;;;;;;5.55;1.70;;;;;;;;;;6310932;27;20043;-71
2023/08/27 17:54:33;;;;;;;5.63;2.60;;;;;;;;;;6249179;27;20045;-71
2023/08/27 17:57:36;;;;;;;5.05;2.10;;;;;;;;;;6275987;27;20055;-71
2023/08/27 18:00:37;;;;;;;5.65;1.88;;;;;;;;;;6267854;27;20042;-70
2023/08/27 18:03:40;;;;;;;6.45;2.45;;;;;;;;;;6232134;27;20228;-71
2023/08/27 18:06:42;;;;;;;5.15;1.95;;;;;;;;;;6225458;28;20049;-71
2023/08/27 18:09:44;;;;;;;6.28;1.92;;;;;;;;;;6237579;27;20174;-71
2023/08/27 18:12:46;;;;;;;5.18;1.70;;;;;;;;;;6225189;27;20045;-71
2023/08/27 18:15:48;;;;;;;9.70;2.22;;;;;;;;;;6250593;27;20071;-71
2023/08/27 18:18:50;;;;;;;5.40;2.08;;;;;;;;;;6254852;28;20053;-70
2023/08/27 18:21:52;;;;;;;6.18;3.10;;;;;;;;;;6238760;27;20069;-71
2023/08/27 18:24:54;;;;;;;6.82;3.70;;;;;;;;;;6227028;27;20042;-70